sensor_id;sensor_type;location;lat;lon;timestamp;P1;durP1;ratioP1;P2;durP2;ratioP2
43891;SDS011;29555;45.350;5.578;2023-04-09T00:00:11;3.35;;;1.40;;
43891;SDS011;29555;45.350;5.578;2023-04-09T00:02:37;5.43;;;1.55;;
43891;SDS011;29555;45.350;5.578;2023-04-09T00:05:02;1.58;;;1.48;;
43891;SDS011;29555;45.350;5.578;2023-04-09T00:07:28;1.40;;;1.30;;
43891;SDS011;29555;45.350;5.578;2023-04-09T00:09:53;1.45;;;1.30;;
43891;SDS011;29555;45.350;5.578;2023-04-09T00:12:18;4.75;;;1.50;;
43891;SDS011;29555;45.350;5.578;2023-04-09T00:14:44;3.88;;;2.28;;
43891;SDS011;29555;45.350;5.578;2023-04-09T00:17:09;3.88;;;2.10;;
43891;SDS011;29555;45.350;5.578;2023-04-09T00:19:35;8.20;;;2.40;;
43891;SDS011;29555;45.350;5.578;2023-04-09T00:22:00;3.40;;;2.58;;
43891;SDS011;29555;45.350;5.578;2023-04-09T00:24:25;1.50;;;1.40;;
43891;SDS011;29555;45.350;5.578;2023-04-09T00:26:51;2.30;;;1.75;;
43891;SDS011;29555;45.350;5.578;2023-04-09T00:29:17;4.50;;;2.00;;
43891;SDS011;29555;45.350;5.578;2023-04-09T00:31:42;3.25;;;2.15;;
43891;SDS011;29555;45.350;5.578;2023-04-09T00:34:08;1.98;;;1.45;;
43891;SDS011;29555;45.350;5.578;2023-04-09T00:36:33;4.35;;;3.17;;
43891;SDS011;29555;45.350;5.578;2023-04-09T00:38:58;7.22;;;4.05;;
43891;SDS011;29555;45.350;5.578;2023-04-09T00:41:24;4.47;;;2.50;;
43891;SDS011;29555;45.350;5.578;2023-04-09T00:43:49;1.52;;;1.45;;
43891;SDS011;29555;45.350;5.578;2023-04-09T00:46:15;6.70;;;3.50;;
43891;SDS011;29555;45.350;5.578;2023-04-09T00:48:41;7.95;;;3.28;;
43891;SDS011;29555;45.350;5.578;2023-04-09T00:51:07;1.95;;;1.60;;
43891;SDS011;29555;45.350;5.578;2023-04-09T00:53:33;2.25;;;2.05;;
43891;SDS011;29555;45.350;5.578;2023-04-09T00:55:58;3.08;;;2.40;;
43891;SDS011;29555;45.350;5.578;2023-04-09T00:58:24;2.15;;;1.95;;
43891;SDS011;29555;45.350;5.578;2023-04-09T01:00:50;3.90;;;1.90;;
43891;SDS011;29555;45.350;5.578;2023-04-09T01:03:15;1.55;;;1.45;;
43891;SDS011;29555;45.350;5.578;2023-04-09T01:11:34;5.32;;;1.77;;
43891;SDS011;29555;45.350;5.578;2023-04-09T01:16:37;8.88;;;1.63;;
43891;SDS011;29555;45.350;5.578;2023-04-09T01:19:18;2.22;;;1.25;;
43891;SDS011;29555;45.350;5.578;2023-04-09T01:22:09;4.63;;;1.70;;
43891;SDS011;29555;45.350;5.578;2023-04-09T01:24:59;1.83;;;1.73;;
43891;SDS011;29555;45.350;5.578;2023-04-09T01:27:32;2.53;;;1.83;;
43891;SDS011;29555;45.350;5.578;2023-04-09T01:30:08;2.45;;;1.85;;
43891;SDS011;29555;45.350;5.578;2023-04-09T01:32:36;2.70;;;1.85;;
43891;SDS011;29555;45.350;5.578;2023-04-09T01:35:02;1.70;;;1.48;;
43891;SDS011;29555;45.350;5.578;2023-04-09T01:37:28;1.65;;;1.55;;
43891;SDS011;29555;45.350;5.578;2023-04-09T01:39:54;3.65;;;2.08;;
43891;SDS011;29555;45.350;5.578;2023-04-09T01:42:19;2.30;;;2.05;;
43891;SDS011;29555;45.350;5.578;2023-04-09T01:44:45;3.13;;;2.00;;
43891;SDS011;29555;45.350;5.578;2023-04-09T01:47:11;3.35;;;2.03;;
43891;SDS011;29555;45.350;5.578;2023-04-09T01:49:38;2.75;;;1.42;;
43891;SDS011;29555;45.350;5.578;2023-04-09T01:52:06;1.38;;;1.27;;
43891;SDS011;29555;45.350;5.578;2023-04-09T01:54:33;2.42;;;2.05;;
43891;SDS011;29555;45.350;5.578;2023-04-09T01:56:58;2.60;;;1.42;;
43891;SDS011;29555;45.350;5.578;2023-04-09T01:59:23;2.35;;;1.80;;
43891;SDS011;29555;45.350;5.578;2023-04-09T02:01:52;1.65;;;1.50;;
43891;SDS011;29555;45.350;5.578;2023-04-09T02:04:23;3.25;;;2.55;;
43891;SDS011;29555;45.350;5.578;2023-04-09T02:06:57;3.20;;;2.08;;
43891;SDS011;29555;45.350;5.578;2023-04-09T02:09:29;3.13;;;1.65;;
43891;SDS011;29555;45.350;5.578;2023-04-09T02:11:57;4.32;;;2.60;;
43891;SDS011;29555;45.350;5.578;2023-04-09T02:14:26;3.28;;;2.13;;
43891;SDS011;29555;45.350;5.578;2023-04-09T02:16:53;3.13;;;2.08;;
43891;SDS011;29555;45.350;5.578;2023-04-09T02:19:18;3.70;;;2.15;;
43891;SDS011;29555;45.350;5.578;2023-04-09T02:21:44;4.50;;;1.90;;
43891;SDS011;29555;45.350;5.578;2023-04-09T02:24:10;3.60;;;2.80;;
43891;SDS011;29555;45.350;5.578;2023-04-09T02:26:35;3.45;;;1.80;;
43891;SDS011;29555;45.350;5.578;2023-04-09T02:29:00;4.25;;;2.28;;
43891;SDS011;29555;45.350;5.578;2023-04-09T02:31:26;3.25;;;2.42;;
43891;SDS011;29555;45.350;5.578;2023-04-09T02:33:51;3.10;;;2.65;;
43891;SDS011;29555;45.350;5.578;2023-04-09T02:36:18;4.45;;;2.25;;
43891;SDS011;29555;45.350;5.578;2023-04-09T02:38:43;3.70;;;1.83;;
43891;SDS011;29555;45.350;5.578;2023-04-09T02:41:09;3.42;;;2.60;;
43891;SDS011;29555;45.350;5.578;2023-04-09T02:43:34;5.72;;;2.58;;
43891;SDS011;29555;45.350;5.578;2023-04-09T02:46:00;3.17;;;1.83;;
43891;SDS011;29555;45.350;5.578;2023-04-09T02:48:25;2.85;;;1.77;;
43891;SDS011;29555;45.350;5.578;2023-04-09T02:50:51;1.92;;;1.73;;
43891;SDS011;29555;45.350;5.578;2023-04-09T02:53:16;3.38;;;2.42;;
43891;SDS011;29555;45.350;5.578;2023-04-09T02:55:41;2.58;;;2.38;;
43891;SDS011;29555;45.350;5.578;2023-04-09T02:58:07;2.50;;;2.20;;
43891;SDS011;29555;45.350;5.578;2023-04-09T03:00:32;2.97;;;2.65;;
43891;SDS011;29555;45.350;5.578;2023-04-09T03:02:57;3.50;;;2.85;;
43891;SDS011;29555;45.350;5.578;2023-04-09T03:05:23;3.17;;;2.25;;
43891;SDS011;29555;45.350;5.578;2023-04-09T03:07:48;2.38;;;1.50;;
43891;SDS011;29555;45.350;5.578;2023-04-09T03:10:15;3.15;;;2.53;;
43891;SDS011;29555;45.350;5.578;2023-04-09T03:12:40;4.28;;;2.28;;
43891;SDS011;29555;45.350;5.578;2023-04-09T03:15:08;2.95;;;2.65;;
43891;SDS011;29555;45.350;5.578;2023-04-09T03:17:34;4.13;;;2.95;;
43891;SDS011;29555;45.350;5.578;2023-04-09T03:20:00;3.90;;;3.05;;
43891;SDS011;29555;45.350;5.578;2023-04-09T03:22:25;7.20;;;2.80;;
43891;SDS011;29555;45.350;5.578;2023-04-09T03:24:50;3.58;;;2.92;;
43891;SDS011;29555;45.350;5.578;2023-04-09T03:27:16;2.97;;;2.30;;
43891;SDS011;29555;45.350;5.578;2023-04-09T03:29:41;4.15;;;2.50;;
43891;SDS011;29555;45.350;5.578;2023-04-09T03:32:06;3.13;;;2.70;;
43891;SDS011;29555;45.350;5.578;2023-04-09T03:34:32;3.70;;;2.58;;
43891;SDS011;29555;45.350;5.578;2023-04-09T03:36:57;3.70;;;3.08;;
43891;SDS011;29555;45.350;5.578;2023-04-09T03:39:22;3.92;;;2.60;;
43891;SDS011;29555;45.350;5.578;2023-04-09T03:41:48;3.83;;;2.90;;
43891;SDS011;29555;45.350;5.578;2023-04-09T03:44:13;3.60;;;2.67;;
43891;SDS011;29555;45.350;5.578;2023-04-09T03:46:38;5.13;;;2.83;;
43891;SDS011;29555;45.350;5.578;2023-04-09T03:49:04;3.67;;;2.92;;
43891;SDS011;29555;45.350;5.578;2023-04-09T03:51:29;3.65;;;2.45;;
43891;SDS011;29555;45.350;5.578;2023-04-09T03:53:55;2.88;;;2.63;;
43891;SDS011;29555;45.350;5.578;2023-04-09T03:56:21;2.83;;;2.55;;
43891;SDS011;29555;45.350;5.578;2023-04-09T03:58:47;3.33;;;2.25;;
43891;SDS011;29555;45.350;5.578;2023-04-09T04:01:13;2.78;;;2.45;;
43891;SDS011;29555;45.350;5.578;2023-04-09T04:03:39;3.28;;;2.35;;
43891;SDS011;29555;45.350;5.578;2023-04-09T04:06:04;3.50;;;2.70;;
43891;SDS011;29555;45.350;5.578;2023-04-09T04:08:30;3.15;;;2.10;;
43891;SDS011;29555;45.350;5.578;2023-04-09T04:10:55;2.92;;;2.53;;
43891;SDS011;29555;45.350;5.578;2023-04-09T04:13:20;3.90;;;2.70;;
43891;SDS011;29555;45.350;5.578;2023-04-09T04:15:46;3.35;;;2.80;;
43891;SDS011;29555;45.350;5.578;2023-04-09T04:18:11;2.75;;;2.58;;
43891;SDS011;29555;45.350;5.578;2023-04-09T04:20:37;5.15;;;3.25;;
43891;SDS011;29555;45.350;5.578;2023-04-09T04:23:03;5.60;;;3.03;;
43891;SDS011;29555;45.350;5.578;2023-04-09T04:25:28;4.45;;;2.70;;
43891;SDS011;29555;45.350;5.578;2023-04-09T04:27:54;2.58;;;2.38;;
43891;SDS011;29555;45.350;5.578;2023-04-09T04:30:20;3.30;;;2.50;;
43891;SDS011;29555;45.350;5.578;2023-04-09T04:32:46;4.28;;;2.95;;
43891;SDS011;29555;45.350;5.578;2023-04-09T04:35:12;3.63;;;2.38;;
43891;SDS011;29555;45.350;5.578;2023-04-09T04:37:38;2.85;;;2.60;;
43891;SDS011;29555;45.350;5.578;2023-04-09T04:40:04;3.72;;;3.35;;
43891;SDS011;29555;45.350;5.578;2023-04-09T04:42:30;5.75;;;3.40;;
43891;SDS011;29555;45.350;5.578;2023-04-09T04:44:56;4.05;;;2.85;;
43891;SDS011;29555;45.350;5.578;2023-04-09T04:47:21;4.38;;;3.97;;
43891;SDS011;29555;45.350;5.578;2023-04-09T04:49:47;4.45;;;3.40;;
43891;SDS011;29555;45.350;5.578;2023-04-09T04:52:12;4.30;;;3.17;;
43891;SDS011;29555;45.350;5.578;2023-04-09T04:54:38;6.72;;;3.78;;
43891;SDS011;29555;45.350;5.578;2023-04-09T04:57:03;3.17;;;2.80;;
43891;SDS011;29555;45.350;5.578;2023-04-09T04:59:28;5.03;;;2.78;;
43891;SDS011;29555;45.350;5.578;2023-04-09T05:01:54;3.95;;;3.45;;
43891;SDS011;29555;45.350;5.578;2023-04-09T05:04:19;5.03;;;3.28;;
43891;SDS011;29555;45.350;5.578;2023-04-09T05:06:45;6.78;;;4.15;;
43891;SDS011;29555;45.350;5.578;2023-04-09T05:09:10;5.03;;;3.30;;
43891;SDS011;29555;45.350;5.578;2023-04-09T05:11:36;4.53;;;3.00;;
43891;SDS011;29555;45.350;5.578;2023-04-09T05:14:01;8.35;;;3.80;;
43891;SDS011;29555;45.350;5.578;2023-04-09T05:16:27;4.82;;;3.83;;
43891;SDS011;29555;45.350;5.578;2023-04-09T05:18:52;9.13;;;5.07;;
43891;SDS011;29555;45.350;5.578;2023-04-09T05:21:18;6.10;;;5.18;;
43891;SDS011;29555;45.350;5.578;2023-04-09T05:23:43;6.93;;;4.15;;
43891;SDS011;29555;45.350;5.578;2023-04-09T05:26:08;7.50;;;4.72;;
43891;SDS011;29555;45.350;5.578;2023-04-09T05:28:34;6.10;;;4.45;;
43891;SDS011;29555;45.350;5.578;2023-04-09T05:31:00;10.02;;;6.72;;
43891;SDS011;29555;45.350;5.578;2023-04-09T05:33:25;35.17;;;14.20;;
43891;SDS011;29555;45.350;5.578;2023-04-09T05:35:51;25.27;;;12.40;;
43891;SDS011;29555;45.350;5.578;2023-04-09T05:38:16;40.15;;;18.48;;
43891;SDS011;29555;45.350;5.578;2023-04-09T05:40:41;11.27;;;8.18;;
43891;SDS011;29555;45.350;5.578;2023-04-09T05:43:09;5.22;;;4.45;;
43891;SDS011;29555;45.350;5.578;2023-04-09T05:45:35;9.00;;;5.38;;
43891;SDS011;29555;45.350;5.578;2023-04-09T05:48:00;10.45;;;6.85;;
43891;SDS011;29555;45.350;5.578;2023-04-09T05:50:25;24.45;;;13.57;;
43891;SDS011;29555;45.350;5.578;2023-04-09T05:52:51;26.33;;;14.00;;
43891;SDS011;29555;45.350;5.578;2023-04-09T05:55:16;19.77;;;11.63;;
43891;SDS011;29555;45.350;5.578;2023-04-09T05:57:42;9.25;;;5.45;;
43891;SDS011;29555;45.350;5.578;2023-04-09T06:00:09;15.13;;;9.20;;
43891;SDS011;29555;45.350;5.578;2023-04-09T06:02:35;14.95;;;7.82;;
43891;SDS011;29555;45.350;5.578;2023-04-09T06:05:00;15.18;;;9.10;;
43891;SDS011;29555;45.350;5.578;2023-04-09T06:07:26;14.27;;;7.93;;
43891;SDS011;29555;45.350;5.578;2023-04-09T06:09:51;5.90;;;4.57;;
43891;SDS011;29555;45.350;5.578;2023-04-09T06:12:16;6.85;;;5.43;;
43891;SDS011;29555;45.350;5.578;2023-04-09T06:14:42;8.73;;;5.38;;
43891;SDS011;29555;45.350;5.578;2023-04-09T06:17:07;9.40;;;5.30;;
43891;SDS011;29555;45.350;5.578;2023-04-09T06:19:32;7.00;;;4.40;;
43891;SDS011;29555;45.350;5.578;2023-04-09T06:21:58;5.55;;;4.68;;
43891;SDS011;29555;45.350;5.578;2023-04-09T06:24:23;15.75;;;9.32;;
43891;SDS011;29555;45.350;5.578;2023-04-09T06:26:49;7.18;;;4.82;;
43891;SDS011;29555;45.350;5.578;2023-04-09T06:29:14;5.13;;;3.20;;
43891;SDS011;29555;45.350;5.578;2023-04-09T06:31:39;8.43;;;4.20;;
43891;SDS011;29555;45.350;5.578;2023-04-09T06:34:05;18.23;;;8.95;;
43891;SDS011;29555;45.350;5.578;2023-04-09T06:36:31;17.92;;;11.15;;
43891;SDS011;29555;45.350;5.578;2023-04-09T06:38:57;6.57;;;4.35;;
43891;SDS011;29555;45.350;5.578;2023-04-09T06:41:23;24.20;;;10.82;;
43891;SDS011;29555;45.350;5.578;2023-04-09T06:43:49;10.90;;;5.68;;
43891;SDS011;29555;45.350;5.578;2023-04-09T06:46:14;13.02;;;8.50;;
43891;SDS011;29555;45.350;5.578;2023-04-09T06:48:41;16.08;;;9.45;;
43891;SDS011;29555;45.350;5.578;2023-04-09T06:51:08;10.93;;;7.38;;
43891;SDS011;29555;45.350;5.578;2023-04-09T06:53:35;12.00;;;7.93;;
43891;SDS011;29555;45.350;5.578;2023-04-09T06:56:01;5.55;;;4.00;;
43891;SDS011;29555;45.350;5.578;2023-04-09T06:58:27;20.08;;;7.55;;
43891;SDS011;29555;45.350;5.578;2023-04-09T07:00:52;15.27;;;6.88;;
43891;SDS011;29555;45.350;5.578;2023-04-09T07:03:17;7.25;;;3.88;;
43891;SDS011;29555;45.350;5.578;2023-04-09T07:05:43;14.15;;;8.90;;
43891;SDS011;29555;45.350;5.578;2023-04-09T07:08:08;15.23;;;9.02;;
43891;SDS011;29555;45.350;5.578;2023-04-09T07:10:33;18.48;;;10.25;;
43891;SDS011;29555;45.350;5.578;2023-04-09T07:12:59;6.65;;;4.47;;
43891;SDS011;29555;45.350;5.578;2023-04-09T08:39:09;4.03;;;3.10;;
43891;SDS011;29555;45.350;5.578;2023-04-09T08:41:34;7.43;;;3.53;;
43891;SDS011;29555;45.350;5.578;2023-04-09T08:44:06;4.03;;;3.15;;
43891;SDS011;29555;45.350;5.578;2023-04-09T08:46:31;3.47;;;2.65;;
43891;SDS011;29555;45.350;5.578;2023-04-09T08:49:00;2.70;;;2.50;;
43891;SDS011;29555;45.350;5.578;2023-04-09T08:51:26;3.60;;;2.90;;
43891;SDS011;29555;45.350;5.578;2023-04-09T08:53:59;4.93;;;2.97;;
43891;SDS011;29555;45.350;5.578;2023-04-09T08:56:25;4.32;;;2.70;;
43891;SDS011;29555;45.350;5.578;2023-04-09T08:58:51;4.45;;;2.67;;
43891;SDS011;29555;45.350;5.578;2023-04-09T09:01:26;5.40;;;2.67;;
43891;SDS011;29555;45.350;5.578;2023-04-09T09:03:54;2.45;;;2.25;;
43891;SDS011;29555;45.350;5.578;2023-04-09T09:06:39;3.25;;;3.05;;
43891;SDS011;29555;45.350;5.578;2023-04-09T09:09:15;3.75;;;2.55;;
43891;SDS011;29555;45.350;5.578;2023-04-09T09:11:42;5.60;;;3.92;;
43891;SDS011;29555;45.350;5.578;2023-04-09T09:14:13;2.85;;;2.65;;
43891;SDS011;29555;45.350;5.578;2023-04-09T09:16:40;3.47;;;2.67;;
43891;SDS011;29555;45.350;5.578;2023-04-09T09:19:29;2.97;;;2.78;;
43891;SDS011;29555;45.350;5.578;2023-04-09T09:22:04;12.02;;;5.40;;
43891;SDS011;29555;45.350;5.578;2023-04-09T09:24:31;2.70;;;2.38;;
43891;SDS011;29555;45.350;5.578;2023-04-09T09:26:58;6.72;;;2.40;;
43891;SDS011;29555;45.350;5.578;2023-04-09T09:29:24;3.03;;;2.50;;
43891;SDS011;29555;45.350;5.578;2023-04-09T09:31:53;4.40;;;2.63;;
43891;SDS011;29555;45.350;5.578;2023-04-09T09:34:20;8.15;;;2.70;;
43891;SDS011;29555;45.350;5.578;2023-04-09T09:36:46;9.80;;;5.00;;
43891;SDS011;29555;45.350;5.578;2023-04-09T09:39:12;6.50;;;4.57;;
43891;SDS011;29555;45.350;5.578;2023-04-09T09:41:41;3.20;;;2.88;;
43891;SDS011;29555;45.350;5.578;2023-04-09T09:44:07;2.55;;;2.35;;
43891;SDS011;29555;45.350;5.578;2023-04-09T09:46:35;5.22;;;3.03;;
43891;SDS011;29555;45.350;5.578;2023-04-09T09:49:02;2.95;;;2.45;;
43891;SDS011;29555;45.350;5.578;2023-04-09T09:51:28;4.28;;;3.30;;
43891;SDS011;29555;45.350;5.578;2023-04-09T09:53:56;12.10;;;4.90;;
43891;SDS011;29555;45.350;5.578;2023-04-09T09:56:23;8.23;;;3.95;;
43891;SDS011;29555;45.350;5.578;2023-04-09T09:58:55;13.25;;;4.45;;
43891;SDS011;29555;45.350;5.578;2023-04-09T10:01:29;5.60;;;4.15;;
43891;SDS011;29555;45.350;5.578;2023-04-09T10:03:55;2.35;;;2.25;;
43891;SDS011;29555;45.350;5.578;2023-04-09T10:06:23;4.18;;;3.78;;
43891;SDS011;29555;45.350;5.578;2023-04-09T10:08:50;9.93;;;6.30;;
43891;SDS011;29555;45.350;5.578;2023-04-09T10:11:17;4.70;;;3.35;;
43891;SDS011;29555;45.350;5.578;2023-04-09T10:13:48;4.78;;;4.10;;
43891;SDS011;29555;45.350;5.578;2023-04-09T10:16:15;3.42;;;3.20;;
43891;SDS011;29555;45.350;5.578;2023-04-09T10:18:41;5.72;;;3.58;;
43891;SDS011;29555;45.350;5.578;2023-04-09T10:21:16;3.65;;;2.85;;
43891;SDS011;29555;45.350;5.578;2023-04-09T10:24:01;2.67;;;2.17;;
43891;SDS011;29555;45.350;5.578;2023-04-09T10:26:31;5.50;;;3.47;;
43891;SDS011;29555;45.350;5.578;2023-04-09T10:29:08;2.83;;;2.30;;
43891;SDS011;29555;45.350;5.578;2023-04-09T10:31:47;3.42;;;2.63;;
43891;SDS011;29555;45.350;5.578;2023-04-09T10:34:18;2.85;;;2.53;;
43891;SDS011;29555;45.350;5.578;2023-04-09T10:36:49;2.28;;;2.08;;
43891;SDS011;29555;45.350;5.578;2023-04-09T10:39:25;8.10;;;2.30;;
43891;SDS011;29555;45.350;5.578;2023-04-09T10:41:52;2.83;;;2.58;;
43891;SDS011;29555;45.350;5.578;2023-04-09T10:44:21;2.72;;;1.42;;
43891;SDS011;29555;45.350;5.578;2023-04-09T10:46:48;2.75;;;2.50;;
43891;SDS011;29555;45.350;5.578;2023-04-09T10:49:18;7.25;;;3.20;;
43891;SDS011;29555;45.350;5.578;2023-04-09T10:52:02;5.70;;;2.70;;
43891;SDS011;29555;45.350;5.578;2023-04-09T10:59:36;1.85;;;1.60;;
43891;SDS011;29555;45.350;5.578;2023-04-09T11:02:02;1.88;;;1.60;;
43891;SDS011;29555;45.350;5.578;2023-04-09T11:04:40;4.93;;;3.95;;
43891;SDS011;29555;45.350;5.578;2023-04-09T11:07:16;3.25;;;2.45;;
43891;SDS011;29555;45.350;5.578;2023-04-09T11:09:46;2.33;;;2.13;;
43891;SDS011;29555;45.350;5.578;2023-04-09T11:12:11;2.53;;;2.15;;
43891;SDS011;29555;45.350;5.578;2023-04-09T11:14:37;3.03;;;2.40;;
43891;SDS011;29555;45.350;5.578;2023-04-09T11:17:02;2.35;;;2.05;;
43891;SDS011;29555;45.350;5.578;2023-04-09T11:19:27;5.50;;;2.13;;
43891;SDS011;29555;45.350;5.578;2023-04-09T11:21:53;2.85;;;2.13;;
43891;SDS011;29555;45.350;5.578;2023-04-09T11:24:18;2.58;;;2.08;;
43891;SDS011;29555;45.350;5.578;2023-04-09T11:26:44;3.00;;;2.65;;
43891;SDS011;29555;45.350;5.578;2023-04-09T11:29:11;3.90;;;2.20;;
43891;SDS011;29555;45.350;5.578;2023-04-09T11:31:36;2.20;;;1.95;;
43891;SDS011;29555;45.350;5.578;2023-04-09T11:34:02;2.75;;;2.30;;
43891;SDS011;29555;45.350;5.578;2023-04-09T11:36:27;2.13;;;1.75;;
43891;SDS011;29555;45.350;5.578;2023-04-09T11:38:56;1.77;;;1.63;;
43891;SDS011;29555;45.350;5.578;2023-04-09T11:41:37;3.03;;;1.73;;
43891;SDS011;29555;45.350;5.578;2023-04-09T11:44:03;1.20;;;1.00;;
43891;SDS011;29555;45.350;5.578;2023-04-09T11:46:36;2.85;;;1.63;;
43891;SDS011;29555;45.350;5.578;2023-04-09T11:49:02;1.05;;;1.05;;
43891;SDS011;29555;45.350;5.578;2023-04-09T11:51:28;1.52;;;1.42;;
43891;SDS011;29555;45.350;5.578;2023-04-09T11:54:03;3.00;;;2.40;;
43891;SDS011;29555;45.350;5.578;2023-04-09T11:56:29;4.60;;;2.08;;
43891;SDS011;29555;45.350;5.578;2023-04-09T11:58:55;2.83;;;1.70;;
43891;SDS011;29555;45.350;5.578;2023-04-09T12:01:21;2.72;;;1.42;;
43891;SDS011;29555;45.350;5.578;2023-04-09T12:03:51;1.55;;;1.45;;
43891;SDS011;29555;45.350;5.578;2023-04-09T12:06:20;1.85;;;1.48;;
43891;SDS011;29555;45.350;5.578;2023-04-09T12:08:53;1.73;;;1.20;;
43891;SDS011;29555;45.350;5.578;2023-04-09T12:11:19;6.60;;;1.40;;
43891;SDS011;29555;45.350;5.578;2023-04-09T12:13:45;1.38;;;1.27;;
43891;SDS011;29555;45.350;5.578;2023-04-09T12:16:10;3.17;;;1.10;;
43891;SDS011;29555;45.350;5.578;2023-04-09T12:18:37;1.15;;;1.02;;
43891;SDS011;29555;45.350;5.578;2023-04-09T12:21:03;1.73;;;1.55;;
43891;SDS011;29555;45.350;5.578;2023-04-09T12:23:29;1.27;;;1.15;;
43891;SDS011;29555;45.350;5.578;2023-04-09T12:25:57;1.25;;;1.15;;
43891;SDS011;29555;45.350;5.578;2023-04-09T12:28:25;2.08;;;1.50;;
43891;SDS011;29555;45.350;5.578;2023-04-09T12:30:50;1.52;;;1.42;;
43891;SDS011;29555;45.350;5.578;2023-04-09T12:33:16;1.20;;;1.10;;
43891;SDS011;29555;45.350;5.578;2023-04-09T12:35:41;1.25;;;1.15;;
43891;SDS011;29555;45.350;5.578;2023-04-09T12:38:07;3.30;;;1.10;;
43891;SDS011;29555;45.350;5.578;2023-04-09T12:40:33;1.58;;;1.48;;
43891;SDS011;29555;45.350;5.578;2023-04-09T12:43:00;2.58;;;1.50;;
43891;SDS011;29555;45.350;5.578;2023-04-09T12:45:26;1.77;;;1.65;;
43891;SDS011;29555;45.350;5.578;2023-04-09T12:47:52;1.02;;;1.02;;
43891;SDS011;29555;45.350;5.578;2023-04-09T12:50:17;1.27;;;1.17;;
43891;SDS011;29555;45.350;5.578;2023-04-09T12:52:43;1.02;;;0.93;;
43891;SDS011;29555;45.350;5.578;2023-04-09T12:55:09;1.67;;;1.55;;
43891;SDS011;29555;45.350;5.578;2023-04-09T12:57:36;2.10;;;1.75;;
43891;SDS011;29555;45.350;5.578;2023-04-09T13:00:02;1.17;;;1.08;;
43891;SDS011;29555;45.350;5.578;2023-04-09T13:02:29;1.95;;;1.63;;
43891;SDS011;29555;45.350;5.578;2023-04-09T13:04:55;1.73;;;1.42;;
43891;SDS011;29555;45.350;5.578;2023-04-09T13:07:21;2.00;;;1.83;;
43891;SDS011;29555;45.350;5.578;2023-04-09T13:09:47;2.97;;;1.17;;
43891;SDS011;29555;45.350;5.578;2023-04-09T13:12:14;2.20;;;1.60;;
43891;SDS011;29555;45.350;5.578;2023-04-09T13:14:42;0.60;;;0.60;;
43891;SDS011;29555;45.350;5.578;2023-04-09T13:17:09;1.00;;;1.00;;
43891;SDS011;29555;45.350;5.578;2023-04-09T13:19:34;3.22;;;1.10;;
43891;SDS011;29555;45.350;5.578;2023-04-09T13:22:00;1.55;;;0.98;;
43891;SDS011;29555;45.350;5.578;2023-04-09T13:24:25;0.77;;;0.77;;
43891;SDS011;29555;45.350;5.578;2023-04-09T13:26:51;1.63;;;1.20;;
43891;SDS011;29555;45.350;5.578;2023-04-09T13:29:16;1.33;;;1.23;;
43891;SDS011;29555;45.350;5.578;2023-04-09T13:31:42;1.02;;;1.02;;
43891;SDS011;29555;45.350;5.578;2023-04-09T13:34:07;1.58;;;1.23;;
43891;SDS011;29555;45.350;5.578;2023-04-09T13:36:33;1.77;;;0.77;;
43891;SDS011;29555;45.350;5.578;2023-04-09T13:38:58;1.90;;;1.75;;
43891;SDS011;29555;45.350;5.578;2023-04-09T13:41:29;2.38;;;1.67;;
43891;SDS011;29555;45.350;5.578;2023-04-09T13:43:55;8.38;;;1.15;;
43891;SDS011;29555;45.350;5.578;2023-04-09T13:46:21;1.60;;;1.50;;
43891;SDS011;29555;45.350;5.578;2023-04-09T13:48:46;1.27;;;1.15;;
43891;SDS011;29555;45.350;5.578;2023-04-09T13:51:11;1.75;;;1.63;;
43891;SDS011;29555;45.350;5.578;2023-04-09T13:53:37;2.20;;;1.55;;
43891;SDS011;29555;45.350;5.578;2023-04-09T13:56:02;1.45;;;1.08;;
43891;SDS011;29555;45.350;5.578;2023-04-09T13:58:28;1.35;;;1.23;;
43891;SDS011;29555;45.350;5.578;2023-04-09T14:00:53;1.17;;;1.17;;
43891;SDS011;29555;45.350;5.578;2023-04-09T14:03:18;1.17;;;1.08;;
43891;SDS011;29555;45.350;5.578;2023-04-09T14:05:44;0.98;;;0.98;;
43891;SDS011;29555;45.350;5.578;2023-04-09T14:08:09;1.08;;;0.82;;
43891;SDS011;29555;45.350;5.578;2023-04-09T14:10:36;1.17;;;0.95;;
43891;SDS011;29555;45.350;5.578;2023-04-09T14:13:01;1.08;;;0.98;;
43891;SDS011;29555;45.350;5.578;2023-04-09T14:15:30;3.20;;;1.42;;
43891;SDS011;29555;45.350;5.578;2023-04-09T14:17:56;1.10;;;1.00;;
43891;SDS011;29555;45.350;5.578;2023-04-09T14:20:21;1.20;;;1.15;;
43891;SDS011;29555;45.350;5.578;2023-04-09T14:22:48;1.75;;;1.02;;
43891;SDS011;29555;45.350;5.578;2023-04-09T14:25:14;1.45;;;1.35;;
43891;SDS011;29555;45.350;5.578;2023-04-09T14:27:39;0.80;;;0.73;;
43891;SDS011;29555;45.350;5.578;2023-04-09T14:30:05;1.10;;;1.10;;
43891;SDS011;29555;45.350;5.578;2023-04-09T14:32:32;2.40;;;1.10;;
43891;SDS011;29555;45.350;5.578;2023-04-09T14:34:58;2.53;;;1.13;;
43891;SDS011;29555;45.350;5.578;2023-04-09T14:37:23;1.27;;;1.20;;
43891;SDS011;29555;45.350;5.578;2023-04-09T14:39:49;1.63;;;1.23;;
43891;SDS011;29555;45.350;5.578;2023-04-09T14:42:14;0.75;;;0.75;;
43891;SDS011;29555;45.350;5.578;2023-04-09T14:44:40;1.23;;;1.20;;
43891;SDS011;29555;45.350;5.578;2023-04-09T14:47:05;0.88;;;0.82;;
43891;SDS011;29555;45.350;5.578;2023-04-09T14:49:31;0.80;;;0.80;;
43891;SDS011;29555;45.350;5.578;2023-04-09T14:51:56;1.00;;;1.00;;
43891;SDS011;29555;45.350;5.578;2023-04-09T14:54:22;4.20;;;1.27;;
43891;SDS011;29555;45.350;5.578;2023-04-09T14:56:48;0.73;;;0.73;;
43891;SDS011;29555;45.350;5.578;2023-04-09T14:59:13;1.70;;;1.33;;
43891;SDS011;29555;45.350;5.578;2023-04-09T15:01:38;2.58;;;1.48;;
43891;SDS011;29555;45.350;5.578;2023-04-09T15:04:04;1.05;;;0.85;;
43891;SDS011;29555;45.350;5.578;2023-04-09T15:06:29;0.82;;;0.80;;
43891;SDS011;29555;45.350;5.578;2023-04-09T15:08:56;1.15;;;0.47;;
43891;SDS011;29555;45.350;5.578;2023-04-09T15:11:21;1.25;;;1.13;;
43891;SDS011;29555;45.350;5.578;2023-04-09T15:13:47;0.85;;;0.85;;
43891;SDS011;29555;45.350;5.578;2023-04-09T15:16:25;1.02;;;1.02;;
43891;SDS011;29555;45.350;5.578;2023-04-09T15:18:55;0.52;;;0.52;;
43891;SDS011;29555;45.350;5.578;2023-04-09T15:21:22;0.95;;;0.77;;
43891;SDS011;29555;45.350;5.578;2023-04-09T15:23:51;0.75;;;0.73;;
43891;SDS011;29555;45.350;5.578;2023-04-09T15:26:17;0.95;;;0.68;;
43891;SDS011;29555;45.350;5.578;2023-04-09T15:28:42;0.98;;;0.98;;
43891;SDS011;29555;45.350;5.578;2023-04-09T15:31:08;1.35;;;0.98;;
43891;SDS011;29555;45.350;5.578;2023-04-09T15:33:34;1.85;;;1.00;;
43891;SDS011;29555;45.350;5.578;2023-04-09T15:35:59;0.80;;;0.80;;
43891;SDS011;29555;45.350;5.578;2023-04-09T15:38:25;0.70;;;0.55;;
43891;SDS011;29555;45.350;5.578;2023-04-09T15:40:50;0.60;;;0.57;;
43891;SDS011;29555;45.350;5.578;2023-04-09T15:43:16;1.38;;;0.60;;
43891;SDS011;29555;45.350;5.578;2023-04-09T15:45:42;0.32;;;0.30;;
43891;SDS011;29555;45.350;5.578;2023-04-09T15:48:09;0.50;;;0.50;;
43891;SDS011;29555;45.350;5.578;2023-04-09T15:50:34;1.40;;;0.50;;
43891;SDS011;29555;45.350;5.578;2023-04-09T15:53:00;0.68;;;0.68;;
43891;SDS011;29555;45.350;5.578;2023-04-09T15:55:25;0.63;;;0.60;;
43891;SDS011;29555;45.350;5.578;2023-04-09T15:57:51;1.27;;;1.08;;
43891;SDS011;29555;45.350;5.578;2023-04-09T16:00:16;0.65;;;0.65;;
43891;SDS011;29555;45.350;5.578;2023-04-09T16:02:42;0.85;;;0.80;;
43891;SDS011;29555;45.350;5.578;2023-04-09T16:05:07;2.33;;;0.60;;
43891;SDS011;29555;45.350;5.578;2023-04-09T16:07:33;1.95;;;0.90;;
43891;SDS011;29555;45.350;5.578;2023-04-09T16:09:59;0.60;;;0.60;;
43891;SDS011;29555;45.350;5.578;2023-04-09T16:12:25;0.88;;;0.57;;
43891;SDS011;29555;45.350;5.578;2023-04-09T16:14:51;0.55;;;0.55;;
43891;SDS011;29555;45.350;5.578;2023-04-09T16:17:17;0.50;;;0.50;;
43891;SDS011;29555;45.350;5.578;2023-04-09T16:19:42;0.82;;;0.77;;